Time;durP1;ratioP1;P1;durP2;ratioP2;P2;SDS_P1;SDS_P2;PMS_P1;PMS_P2;Temp;Humidity;BMP_temperature;BMP_pressure;BME280_temperature;BME280_humidity;BME280_pressure;Samples;Min_cycle;Max_cycle;Signal;HPM_P1;HPM_P2
2024/01/19 00:00:47;;;;;;;829.67;757.72;;;;;;;;;;10362218;28;20105;-78
2024/01/19 00:05:49;;;;;;;858.72;782.78;;;;;;;;;;10363458;28;20021;-80
2024/01/19 00:10:50;;;;;;;862.17;792.70;;;;;;;;;;10363590;28;20469;-82
2024/01/19 00:15:52;;;;;;;825.65;761.10;;;;;;;;;;10361172;28;20050;-78
2024/01/19 00:20:53;;;;;;;854.15;789.55;;;;;;;;;;10360154;28;20594;-78
2024/01/19 00:25:53;;;;;;;879.00;810.78;;;;;;;;;;10362443;28;20029;-78
2024/01/19 00:30:54;;;;;;;856.58;790.30;;;;;;;;;;10346562;28;20041;-78
2024/01/19 00:35:55;;;;;;;866.42;800.20;;;;;;;;;;10361933;28;20763;-78
2024/01/19 00:40:55;;;;;;;847.63;780.60;;;;;;;;;;10343274;28;20025;-78
2024/01/19 00:45:55;;;;;;;861.10;791.25;;;;;;;;;;10344554;28;20034;-79
2024/01/19 00:50:56;;;;;;;820.53;750.85;;;;;;;;;;10343036;28;20026;-79
2024/01/19 00:55:57;;;;;;;845.20;772.17;;;;;;;;;;10343429;28;20045;-78
2024/01/19 01:00:57;;;;;;;838.03;760.28;;;;;;;;;;10367839;28;20014;-78
2024/01/19 01:06:06;;;;;;;830.38;742.25;;;;;;;;;;10351878;28;20021;-79
2024/01/19 01:11:08;;;;;;;852.55;767.47;;;;;;;;;;10378185;28;20428;-76
2024/01/19 01:16:08;;;;;;;799.65;691.65;;;;;;;;;;10381334;28;20068;-79
2024/01/19 01:21:09;;;;;;;864.88;784.83;;;;;;;;;;10351671;28;20026;-77
2024/01/19 01:26:09;;;;;;;824.60;748.88;;;;;;;;;;10355859;28;20057;-78
2024/01/19 01:31:09;;;;;;;847.08;771.42;;;;;;;;;;10366945;28;20022;-84
2024/01/19 01:36:10;;;;;;;854.63;778.90;;;;;;;;;;10344410;28;20053;-78
2024/01/19 01:41:10;;;;;;;878.60;799.40;;;;;;;;;;10343134;28;20048;-77
2024/01/19 01:46:10;;;;;;;923.67;837.53;;;;;;;;;;10359390;28;20026;-78
2024/01/19 01:51:11;;;;;;;909.30;830.85;;;;;;;;;;10342804;28;20272;-85
2024/01/19 01:56:13;;;;;;;903.50;825.22;;;;;;;;;;10350097;28;20022;-83
2024/01/19 02:01:13;;;;;;;882.10;806.10;;;;;;;;;;10369347;28;20025;-78
2024/01/19 02:06:14;;;;;;;874.15;798.20;;;;;;;;;;10368203;28;20025;-77
2024/01/19 02:11:14;;;;;;;899.28;821.58;;;;;;;;;;10349698;28;20029;-85
2024/01/19 02:16:14;;;;;;;896.88;817.53;;;;;;;;;;10326404;28;20042;-79
2024/01/19 02:21:15;;;;;;;878.05;781.13;;;;;;;;;;10310030;28;20022;-82
2024/01/19 02:26:17;;;;;;;823.42;758.47;;;;;;;;;;10310156;28;20026;-82
2024/01/19 02:31:17;;;;;;;825.88;760.78;;;;;;;;;;10309526;28;20514;-79
2024/01/19 02:36:17;;;;;;;815.08;747.45;;;;;;;;;;10310464;23;20054;-80
2024/01/19 02:41:18;;;;;;;828.38;755.40;;;;;;;;;;10381771;28;20053;-81
2024/01/19 02:46:19;;;;;;;890.17;798.03;;;;;;;;;;10386257;28;20084;-83
2024/01/19 02:51:19;;;;;;;785.17;569.00;;;;;;;;;;10385789;28;20072;-82
2024/01/19 02:56:19;;;;;;;896.58;799.58;;;;;;;;;;10357926;28;20045;-81
2024/01/19 03:01:20;;;;;;;841.45;741.33;;;;;;;;;;10380282;28;20026;-82
2024/01/19 03:06:20;;;;;;;851.75;755.88;;;;;;;;;;10383418;28;20022;-82
2024/01/19 03:11:20;;;;;;;842.15;727.58;;;;;;;;;;10344874;28;20043;-81
2024/01/19 03:16:20;;;;;;;857.25;764.47;;;;;;;;;;10373892;28;20094;-82
2024/01/19 03:21:23;;;;;;;883.17;788.28;;;;;;;;;;10334739;28;20018;-81
2024/01/19 03:26:23;;;;;;;857.13;764.42;;;;;;;;;;10368317;28;20478;-82
2024/01/19 03:31:23;;;;;;;862.42;766.88;;;;;;;;;;10381729;28;20033;-81
2024/01/19 03:36:23;;;;;;;848.42;759.50;;;;;;;;;;10384949;28;20037;-82
2024/01/19 03:41:24;;;;;;;887.03;791.22;;;;;;;;;;10382231;28;20014;-81
2024/01/19 03:46:25;;;;;;;873.10;776.90;;;;;;;;;;10345777;28;20328;-83
2024/01/19 03:51:25;;;;;;;869.60;771.72;;;;;;;;;;10356056;28;20048;-83
2024/01/19 03:56:26;;;;;;;864.88;759.75;;;;;;;;;;10362595;28;20044;-78
2024/01/19 04:01:26;;;;;;;882.15;785.72;;;;;;;;;;10375712;28;20033;-78
2024/01/19 04:06:26;;;;;;;859.95;740.17;;;;;;;;;;10345074;28;20040;-78
2024/01/19 04:11:27;;;;;;;857.38;730.65;;;;;;;;;;10356134;28;20077;-77
2024/01/19 04:16:27;;;;;;;680.88;365.27;;;;;;;;;;10376454;28;20089;-80
2024/01/19 04:21:27;;;;;;;425.83;53.83;;;;;;;;;;10376355;28;20304;-80
2024/01/19 04:26:28;;;;;;;614.33;116.90;;;;;;;;;;10358263;28;20021;-81
2024/01/19 04:31:28;;;;;;;746.03;488.00;;;;;;;;;;10354576;28;20045;-80
2024/01/19 04:36:28;;;;;;;832.70;698.15;;;;;;;;;;10358776;28;20078;-81
2024/01/19 04:41:28;;;;;;;678.15;292.27;;;;;;;;;;10371950;28;20026;-80
2024/01/19 04:46:28;;;;;;;810.67;707.22;;;;;;;;;;10344043;28;20045;-81
2024/01/19 04:51:29;;;;;;;831.55;683.50;;;;;;;;;;10373464;28;20090;-81
2024/01/19 04:56:29;;;;;;;826.63;699.25;;;;;;;;;;10355582;28;20033;-83
2024/01/19 05:01:29;;;;;;;845.55;751.85;;;;;;;;;;10354998;28;20085;-82
2024/01/19 05:06:29;;;;;;;838.88;708.58;;;;;;;;;;10377262;28;20026;-81
2024/01/19 05:11:30;;;;;;;845.20;737.63;;;;;;;;;;10365707;28;20025;-80
2024/01/19 05:16:30;;;;;;;850.08;756.63;;;;;;;;;;10337106;28;20022;-83
2024/01/19 05:21:30;;;;;;;781.85;547.33;;;;;;;;;;10372898;28;20452;-81
2024/01/19 05:26:31;;;;;;;635.13;236.63;;;;;;;;;;10357495;28;20340;-81
2024/01/19 05:31:31;;;;;;;854.05;750.08;;;;;;;;;;10380092;28;20103;-81
2024/01/19 05:36:31;;;;;;;812.13;662.78;;;;;;;;;;10385067;28;20236;-85
2024/01/19 05:41:32;;;;;;;774.17;561.50;;;;;;;;;;10377606;28;20507;-86
2024/01/19 05:46:32;;;;;;;808.80;637.90;;;;;;;;;;10390041;28;20323;-84
2024/01/19 05:51:32;;;;;;;630.13;266.75;;;;;;;;;;10371568;28;20084;-84
2024/01/19 05:56:32;;;;;;;883.78;787.28;;;;;;;;;;10389619;28;20129;-85
2024/01/19 06:01:33;;;;;;;864.42;761.30;;;;;;;;;;10357693;28;20061;-85
2024/01/19 06:06:34;;;;;;;791.70;598.38;;;;;;;;;;10349532;28;20022;-84
2024/01/19 06:11:35;;;;;;;841.67;727.28;;;;;;;;;;10360148;28;20044;-84
2024/01/19 06:16:39;;;;;;;844.90;711.05;;;;;;;;;;10382819;28;20068;-84
2024/01/19 06:21:42;;;;;;;853.40;752.60;;;;;;;;;;10347999;28;20330;-80
2024/01/19 06:26:46;;;;;;;846.80;699.22;;;;;;;;;;10348003;28;20025;-82
2024/01/19 06:31:47;;;;;;;848.58;718.08;;;;;;;;;;10385101;28;20215;-81
2024/01/19 06:36:48;;;;;;;856.47;739.80;;;;;;;;;;10374648;28;20046;-82
2024/01/19 06:41:48;;;;;;;858.58;752.22;;;;;;;;;;10354207;28;20030;-80
2024/01/19 06:46:48;;;;;;;853.40;730.85;;;;;;;;;;10383657;28;20052;-80
2024/01/19 06:51:49;;;;;;;863.10;755.17;;;;;;;;;;10383999;28;20087;-80
2024/01/19 06:56:50;;;;;;;862.60;761.42;;;;;;;;;;10378813;28;20026;-80
2024/01/19 07:01:50;;;;;;;862.45;764.90;;;;;;;;;;10356931;28;20026;-82
2024/01/19 07:06:50;;;;;;;858.83;747.03;;;;;;;;;;10343929;28;20026;-82
2024/01/19 07:11:50;;;;;;;884.78;788.05;;;;;;;;;;10374512;28;20032;-80
2024/01/19 07:16:51;;;;;;;879.97;783.15;;;;;;;;;;10348175;28;20037;-82
2024/01/19 07:21:51;;;;;;;884.20;787.03;;;;;;;;;;10323710;28;20086;-90
2024/01/19 07:26:51;;;;;;;863.35;755.70;;;;;;;;;;10368988;28;20046;-88
2024/01/19 07:31:51;;;;;;;873.58;775.00;;;;;;;;;;10366759;28;20057;-84
2024/01/19 07:36:52;;;;;;;885.92;788.30;;;;;;;;;;10316358;28;20351;-77
2024/01/19 07:41:54;;;;;;;910.57;812.20;;;;;;;;;;10378061;28;20026;-75
2024/01/19 07:46:55;;;;;;;888.17;790.63;;;;;;;;;;10378447;28;20582;-74
2024/01/19 07:51:55;;;;;;;925.60;826.95;;;;;;;;;;10375484;28;20053;-75
2024/01/19 07:56:55;;;;;;;950.42;850.85;;;;;;;;;;10377699;28;20107;-74
2024/01/19 08:01:55;;;;;;;976.72;875.58;;;;;;;;;;10377029;28;20017;-74
2024/01/19 08:06:56;;;;;;;962.22;861.67;;;;;;;;;;10364861;28;20409;-75
2024/01/19 08:11:56;;;;;;;951.45;851.33;;;;;;;;;;10330554;28;20236;-75
2024/01/19 08:16:56;;;;;;;946.85;846.47;;;;;;;;;;10326352;28;20022;-75
2024/01/19 08:21:56;;;;;;;947.60;847.20;;;;;;;;;;10324570;28;20010;-73
2024/01/19 08:26:57;;;;;;;975.85;874.90;;;;;;;;;;10326407;28;20203;-74
2024/01/19 08:31:57;;;;;;;957.72;856.55;;;;;;;;;;10322188;28;20315;-75
2024/01/19 08:36:57;;;;;;;984.75;882.80;;;;;;;;;;10321986;28;20215;-74
2024/01/19 08:41:58;;;;;;;1003.63;901.17;;;;;;;;;;10323383;28;20060;-74
2024/01/19 08:46:58;;;;;;;1022.60;919.33;;;;;;;;;;10319810;28;20097;-74
2024/01/19 08:51:58;;;;;;;1027.78;924.17;;;;;;;;;;10320066;28;20346;-76
2024/01/19 08:56:58;;;;;;;1068.07;962.38;;;;;;;;;;10321425;28;20019;-74
2024/01/19 09:01:59;;;;;;;1076.22;970.33;;;;;;;;;;10322100;28;20029;-74
2024/01/19 09:06:59;;;;;;;1069.68;964.47;;;;;;;;;;10323335;28;20033;-75
2024/01/19 09:11:59;;;;;;;1063.07;957.85;;;;;;;;;;10323516;28;20552;-74
2024/01/19 09:16:59;;;;;;;1056.63;952.78;;;;;;;;;;10323237;28;20041;-74
2024/01/19 09:22:00;;;;;;;1039.10;936.40;;;;;;;;;;10323390;28;20010;-74
2024/01/19 09:27:00;;;;;;;1012.73;911.17;;;;;;;;;;10323908;28;20095;-74
2024/01/19 09:32:01;;;;;;;1044.30;940.55;;;;;;;;;;10322915;28;20369;-75
2024/01/19 09:37:01;;;;;;;1025.70;923.83;;;;;;;;;;10321525;28;20323;-74
2024/01/19 09:42:09;;;;;;;956.03;856.47;;;;;;;;;;10310250;28;20014;-74
2024/01/19 09:47:17;;;;;;;1025.53;923.55;;;;;;;;;;10322326;28;20415;-75
2024/01/19 09:52:17;;;;;;;;;;;;;;;;;;10316931;28;20243;-74
2024/01/19 09:57:17;;;;;;;1041.65;939.28;;;;;;;;;;10323525;28;19913;-74
2024/01/19 10:02:20;;;;;;;466.85;139.70;;;;;;;;;;10322050;28;20415;-74
2024/01/19 10:07:20;;;;;;;369.92;127.43;;;;;;;;;;10324649;28;20021;-75
2024/01/19 10:12:22;;;;;;;627.13;279.33;;;;;;;;;;10323369;28;20396;-74
2024/01/19 10:17:22;;;;;;;943.00;846.35;;;;;;;;;;10345580;28;20022;-73
2024/01/19 10:22:23;;;;;;;901.67;807.08;;;;;;;;;;10329393;28;20042;-74
2024/01/19 10:27:36;;;;;;;815.83;712.00;;;;;;;;;;10329225;28;20042;-74
2024/01/19 10:32:37;;;;;;;829.35;726.28;;;;;;;;;;10329623;28;20086;-74
2024/01/19 10:37:38;;;;;;;571.65;347.17;;;;;;;;;;10332493;28;20076;-74
2024/01/19 10:42:39;;;;;;;756.28;505.90;;;;;;;;;;10328091;28;20010;-74
2024/01/19 10:47:42;;;;;;;665.20;170.02;;;;;;;;;;10325835;28;20085;-75
2024/01/19 10:52:43;;;;;;;325.08;45.08;;;;;;;;;;10325351;28;20026;-75
2024/01/19 10:57:43;;;;;;;943.30;845.47;;;;;;;;;;10328439;28;20034;-74
2024/01/19 11:02:47;;;;;;;932.05;835.72;;;;;;;;;;10328584;28;20030;-73
2024/01/19 11:07:49;;;;;;;892.05;797.85;;;;;;;;;;10325166;28;20093;-75
2024/01/19 11:12:57;;;;;;;823.05;729.58;;;;;;;;;;10329204;28;20037;-75
2024/01/19 11:17:58;;;;;;;818.83;715.63;;;;;;;;;;10326097;28;20014;-76
2024/01/19 11:23:00;;;;;;;768.05;591.30;;;;;;;;;;10324755;28;20014;-73
2024/01/19 11:28:07;;;;;;;974.93;877.73;;;;;;;;;;10323515;28;20713;-74
2024/01/19 11:33:17;;;;;;;717.60;413.05;;;;;;;;;;10325740;28;20167;-74
2024/01/19 11:38:36;;;;;;;43.83;20.27;;;;;;;;;;10325152;28;20427;-75
2024/01/19 11:43:37;;;;;;;0.00;0.00;;;;;;;;;;10324388;28;20011;-73
2024/01/19 11:48:41;;;;;;;0.50;0.50;;;;;;;;;;10323294;28;19924;-75
2024/01/19 11:54:01;;;;;;;655.95;543.90;;;;;;;;;;10324235;28;19932;-73
2024/01/19 11:59:01;;;;;;;580.90;463.65;;;;;;;;;;10322307;28;20057;-73
2024/01/19 12:04:02;;;;;;;583.37;357.53;;;;;;;;;;10325577;28;20260;-73
2024/01/19 12:09:07;;;;;;;52.78;16.33;;;;;;;;;;10317118;28;20243;-74
2024/01/19 12:14:09;;;;;;;5.68;2.83;;;;;;;;;;10323181;28;20018;-74
2024/01/19 12:19:09;;;;;;;3.72;1.88;;;;;;;;;;10324351;28;20041;-74
2024/01/19 12:24:09;;;;;;;0.38;0.00;;;;;;;;;;10322538;28;20018;-75
2024/01/19 12:29:10;;;;;;;0.00;0.00;;;;;;;;;;10322927;28;20026;-75
2024/01/19 12:34:11;;;;;;;4.85;2.10;;;;;;;;;;10324213;28;20116;-74
2024/01/19 12:39:13;;;;;;;3.00;2.10;;;;;;;;;;10323570;28;20026;-74
2024/01/19 12:44:14;;;;;;;3.63;2.50;;;;;;;;;;10324385;28;20021;-73
2024/01/19 12:49:14;;;;;;;10.32;5.93;;;;;;;;;;10322767;28;20052;-74
2024/01/19 12:54:15;;;;;;;0.00;0.00;;;;;;;;;;10324437;28;20037;-75
2024/01/19 12:59:21;;;;;;;0.05;0.00;;;;;;;;;;10306449;28;20034;-75
2024/01/19 13:04:22;;;;;;;0.00;0.00;;;;;;;;;;10321107;28;20006;-73
2024/01/19 13:09:25;;;;;;;0.00;0.00;;;;;;;;;;10323479;28;20331;-74
2024/01/19 13:14:25;;;;;;;1.45;1.35;;;;;;;;;;10324460;28;20026;-74
2024/01/19 13:19:25;;;;;;;2.30;0.05;;;;;;;;;;10322110;28;20021;-74
2024/01/19 13:24:26;;;;;;;0.00;0.00;;;;;;;;;;10323513;28;20045;-74
2024/01/19 13:29:26;;;;;;;0.00;0.00;;;;;;;;;;10322223;28;20318;-74
2024/01/19 13:34:27;;;;;;;1.08;0.00;;;;;;;;;;10322712;28;20377;-75
2024/01/19 13:39:28;;;;;;;0.00;0.00;;;;;;;;;;10322314;28;20022;-76
2024/01/19 13:44:28;;;;;;;0.80;0.00;;;;;;;;;;10321801;28;20064;-75
2024/01/19 13:49:28;;;;;;;0.00;0.00;;;;;;;;;;10328453;28;20033;-74
2024/01/19 13:54:29;;;;;;;3.92;2.13;;;;;;;;;;10328804;28;20374;-74
2024/01/19 13:59:29;;;;;;;0.10;0.00;;;;;;;;;;10329978;28;20026;-76
2024/01/19 14:04:30;;;;;;;4.45;0.10;;;;;;;;;;10329419;28;20498;-75
2024/01/19 14:09:30;;;;;;;0.00;0.00;;;;;;;;;;10331174;28;20034;-74
2024/01/19 14:14:31;;;;;;;0.00;0.00;;;;;;;;;;10326957;28;20288;-75
2024/01/19 14:19:32;;;;;;;0.00;0.00;;;;;;;;;;10326570;28;20292;-73
2024/01/19 14:24:32;;;;;;;0.28;0.00;;;;;;;;;;10329761;28;20029;-74
2024/01/19 14:29:33;;;;;;;3.38;0.00;;;;;;;;;;10311266;28;20137;-73
2024/01/19 14:34:33;;;;;;;0.10;0.00;;;;;;;;;;10329161;28;20054;-76
2024/01/19 14:39:33;;;;;;;2.38;0.00;;;;;;;;;;10328750;28;20080;-73
2024/01/19 14:44:34;;;;;;;0.00;0.00;;;;;;;;;;10327351;28;20018;-76
2024/01/19 14:49:35;;;;;;;3.90;3.57;;;;;;;;;;10327950;28;20069;-74
2024/01/19 14:54:35;;;;;;;0.77;0.77;;;;;;;;;;10328087;28;20053;-73
2024/01/19 14:59:35;;;;;;;0.00;0.00;;;;;;;;;;10326629;28;20018;-74
2024/01/19 15:04:36;;;;;;;0.00;0.00;;;;;;;;;;10328562;28;20200;-74
2024/01/19 15:09:36;;;;;;;43.95;16.45;;;;;;;;;;10326412;28;20018;-74
2024/01/19 15:14:36;;;;;;;431.85;57.92;;;;;;;;;;10326466;28;20018;-74
2024/01/19 15:19:36;;;;;;;404.13;52.35;;;;;;;;;;10326722;28;20037;-75
2024/01/19 15:24:37;;;;;;;0.60;0.10;;;;;;;;;;10325929;28;20022;-75
2024/01/19 15:29:37;;;;;;;0.00;0.00;;;;;;;;;;10309442;28;20073;-74
2024/01/19 15:34:38;;;;;;;252.07;44.78;;;;;;;;;;10324293;28;20543;-73
2024/01/19 15:39:42;;;;;;;358.75;52.53;;;;;;;;;;10325179;28;20216;-73
2024/01/19 15:44:42;;;;;;;391.38;54.72;;;;;;;;;;10323879;28;20488;-76
2024/01/19 15:49:43;;;;;;;394.92;54.88;;;;;;;;;;10326160;28;20030;-74
2024/01/19 15:54:43;;;;;;;449.77;58.90;;;;;;;;;;10326629;28;20034;-73
2024/01/19 15:59:44;;;;;;;483.20;61.15;;;;;;;;;;10322854;28;21256;-74
2024/01/19 16:04:44;;;;;;;194.27;40.13;;;;;;;;;;10324810;28;20308;-74
2024/01/19 16:09:45;;;;;;;204.00;41.13;;;;;;;;;;10326181;28;20076;-78
2024/01/19 16:14:45;;;;;;;190.85;39.92;;;;;;;;;;10326877;28;20247;-81
2024/01/19 16:19:55;;;;;;;234.82;43.20;;;;;;;;;;10325555;28;20424;-75
2024/01/19 16:24:55;;;;;;;220.60;41.80;;;;;;;;;;10322735;28;20014;-77
2024/01/19 16:29:55;;;;;;;158.55;31.58;;;;;;;;;;10323970;28;20022;-77
2024/01/19 16:34:55;;;;;;;0.00;0.00;;;;;;;;;;10326942;28;20320;-77
2024/01/19 16:39:56;;;;;;;0.00;0.00;;;;;;;;;;10323028;28;20026;-77
2024/01/19 16:44:56;;;;;;;2.08;0.00;;;;;;;;;;10324738;28;20047;-81
2024/01/19 16:49:59;;;;;;;1.40;0.00;;;;;;;;;;10319023;28;20022;-79
2024/01/19 16:54:59;;;;;;;0.75;0.00;;;;;;;;;;10319412;28;20033;-76
2024/01/19 17:00:00;;;;;;;0.15;0.00;;;;;;;;;;10320733;28;20407;-76
2024/01/19 17:05:00;;;;;;;1.23;1.00;;;;;;;;;;10320650;28;20323;-75
2024/01/19 17:10:00;;;;;;;1.08;0.00;;;;;;;;;;10321130;28;20130;-79
2024/01/19 17:15:00;;;;;;;4.60;0.30;;;;;;;;;;10320581;28;20030;-75
2024/01/19 17:20:02;;;;;;;3.20;0.00;;;;;;;;;;10322426;28;20122;-80
2024/01/19 17:25:02;;;;;;;7.32;0.10;;;;;;;;;;10333610;28;20081;-79
2024/01/19 17:30:02;;;;;;;10.88;0.10;;;;;;;;;;10330093;28;20211;-77
2024/01/19 17:35:04;;;;;;;6.03;0.10;;;;;;;;;;10332293;28;20057;-79
2024/01/19 17:40:04;;;;;;;20.25;0.40;;;;;;;;;;10330194;28;20026;-81
2024/01/19 17:45:05;;;;;;;5.55;0.22;;;;;;;;;;10331200;28;20404;-77
2024/01/19 17:50:06;;;;;;;8.38;0.20;;;;;;;;;;10330347;28;20026;-76
2024/01/19 17:55:07;;;;;;;6.28;0.00;;;;;;;;;;10329148;28;20028;-76
2024/01/19 18:00:08;;;;;;;3.55;0.10;;;;;;;;;;10328994;28;20026;-77
2024/01/19 18:05:09;;;;;;;2.58;0.10;;;;;;;;;;10330905;28;20026;-75
2024/01/19 18:10:09;;;;;;;2.08;0.08;;;;;;;;;;10329075;28;20086;-75
2024/01/19 18:15:09;;;;;;;2.20;0.00;;;;;;;;;;10328518;28;20439;-75
2024/01/19 18:20:10;;;;;;;0.35;0.00;;;;;;;;;;10325945;28;20026;-76
2024/01/19 18:25:10;;;;;;;1.65;1.48;;;;;;;;;;10327380;28;20087;-74
2024/01/19 18:30:11;;;;;;;1.08;0.00;;;;;;;;;;10327845;28;20018;-75
2024/01/19 18:35:11;;;;;;;5.28;0.10;;;;;;;;;;10327137;28;20053;-75
2024/01/19 18:40:11;;;;;;;2.50;0.00;;;;;;;;;;10328337;28;20061;-76
2024/01/19 18:45:13;;;;;;;1.65;0.00;;;;;;;;;;10326844;28;20020;-75
2024/01/19 18:50:14;;;;;;;1.05;0.00;;;;;;;;;;10326407;28;20415;-75
2024/01/19 18:55:14;;;;;;;9.18;4.53;;;;;;;;;;10310614;28;20057;-75
2024/01/19 19:00:15;;;;;;;1.90;0.10;;;;;;;;;;10324962;28;20087;-76
2024/01/19 19:05:15;;;;;;;8.32;7.13;;;;;;;;;;10307634;28;20285;-76
2024/01/19 19:10:15;;;;;;;7.63;6.82;;;;;;;;;;10326376;28;20033;-77
2024/01/19 19:15:16;;;;;;;9.30;8.40;;;;;;;;;;10327124;28;20022;-74
2024/01/19 19:20:16;;;;;;;6.10;5.50;;;;;;;;;;10327642;28;20285;-76
2024/01/19 19:25:16;;;;;;;0.35;0.00;;;;;;;;;;10328213;28;20312;-77
2024/01/19 19:30:17;;;;;;;0.00;0.00;;;;;;;;;;10321068;28;20053;-77
2024/01/19 19:35:18;;;;;;;16.08;13.73;;;;;;;;;;10327694;28;20053;-77
2024/01/19 19:40:18;;;;;;;4.57;4.13;;;;;;;;;;10328102;28;20022;-78
2024/01/19 19:45:18;;;;;;;0.00;0.00;;;;;;;;;;10327014;28;20109;-74
2024/01/19 19:50:19;;;;;;;1.30;0.00;;;;;;;;;;10327229;28;20297;-79
2024/01/19 19:55:19;;;;;;;1.88;1.35;;;;;;;;;;10327404;28;20387;-77
2024/01/19 20:00:21;;;;;;;0.00;0.00;;;;;;;;;;10324031;28;20288;-76
2024/01/19 20:05:21;;;;;;;0.77;0.45;;;;;;;;;;10324484;28;20077;-75
2024/01/19 20:10:21;;;;;;;9.45;5.18;;;;;;;;;;10324402;28;20344;-76
2024/01/19 20:15:21;;;;;;;0.40;0.00;;;;;;;;;;10314951;28;20034;-76
2024/01/19 20:20:22;;;;;;;7.40;0.20;;;;;;;;;;10323704;28;20078;-78
2024/01/19 20:25:23;;;;;;;0.00;0.00;;;;;;;;;;10322167;28;20022;-76
2024/01/19 20:30:23;;;;;;;0.00;0.00;;;;;;;;;;10315037;28;20064;-77
2024/01/19 20:35:23;;;;;;;0.00;0.00;;;;;;;;;;10314935;28;20041;-78
2024/01/19 20:40:25;;;;;;;0.00;0.00;;;;;;;;;;10319246;28;20034;-76
2024/01/19 20:45:26;;;;;;;0.57;0.57;;;;;;;;;;10319289;28;20010;-76
2024/01/19 20:50:26;;;;;;;5.20;0.45;;;;;;;;;;10318113;28;20058;-76
2024/01/19 20:55:26;;;;;;;8.85;8.38;;;;;;;;;;10317830;28;20038;-77
2024/01/19 21:00:26;;;;;;;8.52;7.75;;;;;;;;;;10321241;28;20155;-77
2024/01/19 21:05:27;;;;;;;9.90;9.13;;;;;;;;;;10320962;28;20022;-76
2024/01/19 21:10:27;;;;;;;6.93;6.53;;;;;;;;;;10326903;28;20022;-75
2024/01/19 21:15:27;;;;;;;5.35;4.88;;;;;;;;;;10355761;28;20033;-77
2024/01/19 21:20:27;;;;;;;10.27;8.82;;;;;;;;;;10346383;28;20018;-77
2024/01/19 21:25:28;;;;;;;7.18;6.45;;;;;;;;;;10343074;28;20026;-76
2024/01/19 21:30:28;;;;;;;1.95;1.00;;;;;;;;;;10364674;28;20052;-76
2024/01/19 21:35:29;;;;;;;3.47;2.97;;;;;;;;;;10374843;28;20065;-75
2024/01/19 21:40:29;;;;;;;1.55;0.00;;;;;;;;;;10373907;28;20045;-76
2024/01/19 21:45:29;;;;;;;1.17;0.00;;;;;;;;;;10375686;28;20026;-76
2024/01/19 21:50:29;;;;;;;6.90;6.30;;;;;;;;;;10373783;28;20034;-76
2024/01/19 21:55:33;;;;;;;8.23;7.53;;;;;;;;;;10361558;28;20486;-78
2024/01/19 22:00:33;;;;;;;5.93;5.32;;;;;;;;;;10382748;28;20021;-77
2024/01/19 22:05:35;;;;;;;6.13;5.53;;;;;;;;;;10376573;28;20260;-77
2024/01/19 22:10:35;;;;;;;2.63;1.85;;;;;;;;;;10384492;28;20037;-76
2024/01/19 22:15:36;;;;;;;2.28;2.17;;;;;;;;;;10376214;28;20379;-77
2024/01/19 22:20:36;;;;;;;0.00;0.00;;;;;;;;;;10380789;28;20025;-76
2024/01/19 22:25:36;;;;;;;1.65;1.55;;;;;;;;;;10376396;28;20034;-76
2024/01/19 22:30:37;;;;;;;7.25;6.72;;;;;;;;;;10356403;28;20160;-76
2024/01/19 22:35:37;;;;;;;8.40;7.25;;;;;;;;;;10380359;28;20216;-77
2024/01/19 22:40:37;;;;;;;9.73;8.95;;;;;;;;;;10380658;28;20144;-76
2024/01/19 22:45:37;;;;;;;7.05;6.38;;;;;;;;;;10379906;28;20009;-77
2024/01/19 22:50:37;;;;;;;7.43;6.80;;;;;;;;;;10380066;28;20036;-77
2024/01/19 22:55:38;;;;;;;8.07;7.45;;;;;;;;;;10380101;28;20034;-75
2024/01/19 23:00:38;;;;;;;8.23;7.45;;;;;;;;;;10379919;28;20312;-76
2024/01/19 23:05:39;;;;;;;7.72;7.05;;;;;;;;;;10378597;28;20219;-76
2024/01/19 23:10:39;;;;;;;9.30;8.60;;;;;;;;;;10379058;28;20025;-77
2024/01/19 23:15:43;;;;;;;7.25;6.65;;;;;;;;;;10378702;28;20393;-76
2024/01/19 23:20:43;;;;;;;6.65;6.15;;;;;;;;;;10378625;28;20022;-76
2024/01/19 23:25:44;;;;;;;6.68;6.18;;;;;;;;;;10377097;28;20208;-77
2024/01/19 23:30:44;;;;;;;8.57;7.88;;;;;;;;;;10378521;28;20030;-77
2024/01/19 23:35:45;;;;;;;6.70;6.20;;;;;;;;;;10378692;28;20026;-77
2024/01/19 23:40:45;;;;;;;9.45;8.65;;;;;;;;;;10377621;28;20029;-78
2024/01/19 23:45:45;;;;;;;9.02;8.32;;;;;;;;;;10366956;28;20022;-78
2024/01/19 23:50:45;;;;;;;7.80;7.17;;;;;;;;;;10362129;28;20342;-76
2024/01/19 23:55:46;;;;;;;7.90;7.25;;;;;;;;;;10374789;28;20064;-77
